createdAt,value
2019-02-24T00:00:00.292Z,21.37
2019-02-24T00:04:12.694Z,20.40
2019-02-24T00:08:25.110Z,21.00
2019-02-24T00:12:37.933Z,19.83
2019-02-24T00:16:50.419Z,21.43
2019-02-24T00:21:03.342Z,19.80
2019-02-24T00:25:15.896Z,20.13
2019-02-24T00:29:28.892Z,19.23
2019-02-24T00:33:41.449Z,19.60
2019-02-24T00:37:53.863Z,18.53
2019-02-24T00:42:06.758Z,18.03
2019-02-24T00:46:19.280Z,19.27
2019-02-24T00:50:32.393Z,18.53
2019-02-24T00:54:44.864Z,18.63
2019-02-24T00:58:57.739Z,19.37
2019-02-24T01:03:10.206Z,18.73
2019-02-24T01:07:22.612Z,19.83
2019-02-24T01:11:35.505Z,18.33
2019-02-24T01:15:47.950Z,18.67
2019-02-24T01:20:00.402Z,19.60
2019-02-24T01:24:13.166Z,18.80
2019-02-24T01:28:25.731Z,19.00
2019-02-24T01:32:38.612Z,17.77
2019-02-24T01:36:51.164Z,18.57
2019-02-24T01:41:03.482Z,18.47
2019-02-24T01:45:16.362Z,18.20
2019-02-24T01:49:28.884Z,17.53
2019-02-24T01:53:41.325Z,17.60
2019-02-24T01:57:54.093Z,19.33
2019-02-24T02:02:06.580Z,19.37
2019-02-24T02:06:18.892Z,18.70
2019-02-24T02:10:31.776Z,19.13
2019-02-24T02:14:44.237Z,19.40
2019-02-24T02:18:56.542Z,19.90
2019-02-24T02:23:09.041Z,19.73
2019-02-24T02:27:21.740Z,20.47
2019-02-24T02:31:34.204Z,19.57
2019-02-24T02:35:46.617Z,19.63
2019-02-24T02:39:59.508Z,22.00
2019-02-24T02:44:11.957Z,20.50
2019-02-24T02:48:24.273Z,20.97
2019-02-24T02:52:37.123Z,20.93
2019-02-24T02:56:49.843Z,22.03
2019-02-24T03:01:02.914Z,22.50
2019-02-24T03:05:15.373Z,22.33
2019-02-24T03:09:28.458Z,23.73
2019-02-24T03:13:40.917Z,22.67
2019-02-24T03:17:53.224Z,23.70
2019-02-24T03:22:05.540Z,22.37
2019-02-24T03:26:17.917Z,24.27
2019-02-24T03:30:30.577Z,22.67
2019-02-24T03:34:43.100Z,25.23
2019-02-24T03:38:55.987Z,26.10
2019-02-24T03:43:08.645Z,27.20
2019-02-24T03:47:21.052Z,27.33
2019-02-24T03:51:33.954Z,28.83
2019-02-24T03:55:46.685Z,28.97
2019-02-24T03:59:59.604Z,29.40
2019-02-24T04:04:12.165Z,31.00
2019-02-24T04:08:24.566Z,30.53
2019-02-24T04:12:37.464Z,31.07
2019-02-24T04:16:49.930Z,27.63
2019-02-24T04:21:02.908Z,27.57
2019-02-24T04:25:15.468Z,29.13
2019-02-24T04:29:29.083Z,27.27
2019-02-24T04:33:41.828Z,28.47
2019-02-24T04:37:54.639Z,30.33
2019-02-24T04:42:06.976Z,29.90
2019-02-24T04:46:19.276Z,29.00
2019-02-24T04:50:32.080Z,29.00
2019-02-24T04:54:44.628Z,29.17
2019-02-24T04:58:57.126Z,29.83
2019-02-24T05:03:09.820Z,27.33
2019-02-24T05:07:22.293Z,28.33
2019-02-24T05:11:34.919Z,30.70
2019-02-24T05:15:47.730Z,33.33
2019-02-24T05:20:00.386Z,31.17
2019-02-24T05:24:12.767Z,32.90
2019-02-24T05:28:25.652Z,34.73
2019-02-24T05:32:38.200Z,34.43
2019-02-24T05:36:50.995Z,33.50
2019-02-24T05:41:03.556Z,32.60
2019-02-24T05:45:15.975Z,31.97
2019-02-24T05:49:28.749Z,31.03
2019-02-24T05:53:41.205Z,31.03
2019-02-24T05:57:53.643Z,33.07
2019-02-24T06:02:06.681Z,32.00
2019-02-24T06:06:19.177Z,33.17
2019-02-24T06:10:32.240Z,32.43
2019-02-24T06:14:44.725Z,30.87
2019-02-24T06:18:57.029Z,34.67
2019-02-24T06:23:09.455Z,34.90
2019-02-24T06:27:22.241Z,36.47
2019-02-24T06:31:34.696Z,36.13
2019-02-24T06:35:47.072Z,34.97
2019-02-24T06:39:59.779Z,32.93
2019-02-24T06:44:12.248Z,34.30
2019-02-24T06:48:24.658Z,34.70
2019-02-24T06:52:38.104Z,34.10
2019-02-24T06:56:50.617Z,29.73
2019-02-24T07:01:03.569Z,32.87
2019-02-24T07:05:16.153Z,33.83
2019-02-24T07:09:29.051Z,33.93
2019-02-24T07:13:41.613Z,32.83
2019-02-24T07:17:54.022Z,32.37
2019-02-24T07:22:06.916Z,31.90
2019-02-24T07:26:19.363Z,30.27
2019-02-24T07:30:31.680Z,33.47
2019-02-24T07:34:43.992Z,30.40
2019-02-24T07:38:56.368Z,31.40
2019-02-24T07:43:09.193Z,33.37
2019-02-24T07:47:21.657Z,33.40
2019-02-24T07:51:34.540Z,30.87
2019-02-24T07:55:47.225Z,30.27
2019-02-24T07:59:59.776Z,33.40
2019-02-24T08:04:12.397Z,32.73
2019-02-24T08:08:24.936Z,29.27
2019-02-24T08:12:37.852Z,31.00
2019-02-24T08:16:50.305Z,32.10
2019-02-24T08:21:02.690Z,31.37
2019-02-24T08:25:15.607Z,30.83
2019-02-24T08:29:29.687Z,30.97
2019-02-24T08:33:42.008Z,30.63
2019-02-24T08:37:54.804Z,30.30
2019-02-24T08:42:07.425Z,28.93
2019-02-24T08:46:19.772Z,29.53
2019-02-24T08:50:32.465Z,28.43
2019-02-24T08:54:44.936Z,28.33
2019-02-24T08:58:58.025Z,27.10
2019-02-24T09:03:10.637Z,28.73
2019-02-24T09:07:22.982Z,29.23
2019-02-24T09:11:35.989Z,26.53
2019-02-24T09:15:48.324Z,30.07
2019-02-24T09:20:01.208Z,28.83
2019-02-24T09:24:13.779Z,28.37
2019-02-24T09:28:26.194Z,26.60
2019-02-24T09:32:38.968Z,28.43
2019-02-24T09:36:51.429Z,27.17
2019-02-24T09:41:06.349Z,27.07
2019-02-24T09:45:18.717Z,27.70
2019-02-24T09:49:31.608Z,28.27
2019-02-24T09:53:44.166Z,25.97
2019-02-24T09:57:56.817Z,26.33
2019-02-24T10:02:09.776Z,26.93
2019-02-24T10:06:22.227Z,26.23
2019-02-24T10:10:35.111Z,24.73
2019-02-24T10:14:47.742Z,24.47
2019-02-24T10:19:00.664Z,23.80
2019-02-24T10:23:13.228Z,23.37
2019-02-24T10:27:25.634Z,24.83
2019-02-24T10:31:38.521Z,23.40
2019-02-24T10:35:51.080Z,21.20
2019-02-24T10:40:03.398Z,22.73
2019-02-24T10:44:15.910Z,20.93
2019-02-24T10:48:28.697Z,20.93
2019-02-24T10:52:41.156Z,20.57
2019-02-24T10:56:53.569Z,29.97
2019-02-24T11:01:06.620Z,28.13
2019-02-24T11:05:19.225Z,28.37
2019-02-24T11:09:32.108Z,28.03
2019-02-24T11:13:44.665Z,28.37
2019-02-24T11:17:57.041Z,29.37
2019-02-24T11:22:09.971Z,30.30
2019-02-24T11:26:22.654Z,28.13
2019-02-24T11:30:35.508Z,28.10
2019-02-24T11:34:47.979Z,28.80
2019-02-24T11:39:00.380Z,29.70
2019-02-24T11:43:13.267Z,29.23
2019-02-24T11:47:25.900Z,29.67
2019-02-24T11:51:38.720Z,29.97
2019-02-24T11:55:51.384Z,32.10
2019-02-24T12:00:06.813Z,31.47
2019-02-24T12:04:19.820Z,29.17
2019-02-24T12:08:32.317Z,31.07
2019-02-24T12:12:45.410Z,31.83
2019-02-24T12:16:57.924Z,32.57
2019-02-24T12:21:10.734Z,32.40
2019-02-24T12:25:23.415Z,31.17
2019-02-24T12:29:38.245Z,32.17
2019-02-24T12:33:50.807Z,29.90
2019-02-24T12:38:03.212Z,33.47
2019-02-24T12:42:16.105Z,33.40
2019-02-24T12:46:28.660Z,32.20
2019-02-24T12:50:41.039Z,35.07
2019-02-24T12:54:53.858Z,33.47
2019-02-24T12:59:06.483Z,34.40
2019-02-24T13:03:23.970Z,29.77
2019-02-24T13:07:33.249Z,32.67
2019-02-24T13:11:45.712Z,31.83
2019-02-24T13:15:58.125Z,33.00
2019-02-24T13:20:11.463Z,31.70
2019-02-24T13:24:23.881Z,30.87
2019-02-24T13:28:37.015Z,31.73
2019-02-24T13:32:50.005Z,33.33
2019-02-24T13:37:02.665Z,34.20
2019-02-24T13:41:15.082Z,31.93
2019-02-24T13:45:27.493Z,31.93
2019-02-24T13:49:43.044Z,33.00
2019-02-24T13:53:55.682Z,34.50
2019-02-24T13:58:08.012Z,32.43
2019-02-24T14:02:24.072Z,35.23
2019-02-24T14:06:35.067Z,30.07
2019-02-24T14:10:47.995Z,36.00
2019-02-24T14:15:00.696Z,36.47
2019-02-24T14:19:13.660Z,31.90
2019-02-24T14:23:26.384Z,34.60
2019-02-24T14:27:38.812Z,33.77
2019-02-24T14:31:51.607Z,35.27
2019-02-24T14:36:04.165Z,35.27
2019-02-24T14:40:17.248Z,32.47
2019-02-24T14:44:29.811Z,31.83
2019-02-24T14:48:42.118Z,34.27
2019-02-24T14:52:55.014Z,33.10
2019-02-24T14:57:07.637Z,33.73
2019-02-24T15:01:20.038Z,32.20
2019-02-24T15:05:32.977Z,33.80
2019-02-24T15:09:45.429Z,32.83
2019-02-24T15:13:58.315Z,32.83
2019-02-24T15:18:10.872Z,34.00
2019-02-24T15:22:23.187Z,32.23
2019-02-24T15:26:35.578Z,31.83
2019-02-24T15:30:48.283Z,29.90
2019-02-24T15:35:00.748Z,30.53
2019-02-24T15:39:13.732Z,31.60
2019-02-24T15:43:26.292Z,29.20
2019-02-24T15:47:38.796Z,30.07
2019-02-24T15:51:51.597Z,29.57
2019-02-24T15:56:05.043Z,29.10
2019-02-24T16:00:18.173Z,32.67
2019-02-24T16:04:31.053Z,29.27
2019-02-24T16:08:43.652Z,27.77
2019-02-24T16:12:56.538Z,30.87
2019-02-24T16:17:09.200Z,28.53
2019-02-24T16:21:22.185Z,30.23
2019-02-24T16:25:34.736Z,31.00
2019-02-24T16:29:47.403Z,30.87
2019-02-24T16:34:00.148Z,29.57
2019-02-24T16:38:12.616Z,30.10
2019-02-24T16:42:25.593Z,29.03
2019-02-24T16:46:38.059Z,30.43
2019-02-24T16:50:50.365Z,28.73
2019-02-24T16:55:03.248Z,29.93
2019-02-24T16:59:15.811Z,30.97
2019-02-24T17:03:28.347Z,27.43
2019-02-24T17:07:41.223Z,28.93
2019-02-24T17:11:53.674Z,26.90
2019-02-24T17:16:06.289Z,28.00
2019-02-24T17:20:19.541Z,28.60
2019-02-24T17:24:31.933Z,29.73
2019-02-24T17:28:44.727Z,28.30
2019-02-24T17:32:57.249Z,29.70
2019-02-24T17:37:10.059Z,29.43
2019-02-24T17:41:22.524Z,27.47
2019-02-24T17:45:34.957Z,28.87
2019-02-24T17:49:47.833Z,30.43
2019-02-24T17:54:00.286Z,27.43
2019-02-24T17:58:12.693Z,26.17
2019-02-24T18:02:25.653Z,25.53
2019-02-24T18:06:38.218Z,32.50
2019-02-24T18:10:53.705Z,33.30
2019-02-24T18:15:08.375Z,31.90
2019-02-24T18:19:20.711Z,32.20
2019-02-24T18:23:33.597Z,30.27
2019-02-24T18:27:46.064Z,29.53
2019-02-24T18:31:58.949Z,30.87
2019-02-24T18:36:13.285Z,30.53
2019-02-24T18:40:26.237Z,32.67
2019-02-24T18:44:38.784Z,31.80
2019-02-24T18:48:51.197Z,30.70
2019-02-24T18:53:06.426Z,33.30
2019-02-24T18:57:22.871Z,36.33
2019-02-24T19:01:36.015Z,32.30
2019-02-24T19:05:48.674Z,34.33
2019-02-24T19:10:01.532Z,32.50
2019-02-24T19:14:13.988Z,35.53
2019-02-24T19:18:26.552Z,32.63
2019-02-24T19:22:39.300Z,33.50
2019-02-24T19:26:51.762Z,30.57
2019-02-24T19:31:04.169Z,39.07
2019-02-24T19:35:16.745Z,41.03
2019-02-24T19:39:29.414Z,38.57
2019-02-24T19:43:41.926Z,36.13
2019-02-24T19:47:54.455Z,40.43
2019-02-24T19:52:07.160Z,33.63
2019-02-24T19:56:19.580Z,38.70
2019-02-24T20:00:31.893Z,31.73
2019-02-24T20:04:44.272Z,34.27
2019-02-24T20:08:57.204Z,35.93
2019-02-24T20:13:09.448Z,39.10
2019-02-24T20:17:21.766Z,43.63
2019-02-24T20:21:34.647Z,49.33
2019-02-24T20:25:47.713Z,46.70
2019-02-24T20:30:00.505Z,49.90
2019-02-24T20:34:12.889Z,44.50
2019-02-24T20:38:25.335Z,44.07
2019-02-24T20:42:38.708Z,43.70
2019-02-24T20:46:51.121Z,45.30
2019-02-24T20:51:03.910Z,47.53
2019-02-24T20:55:16.365Z,51.03
2019-02-24T20:59:29.914Z,44.83
2019-02-24T21:03:42.788Z,43.53
2019-02-24T21:07:55.637Z,40.50
2019-02-24T21:12:08.613Z,40.37
2019-02-24T21:16:21.109Z,44.40
2019-02-24T21:20:33.648Z,43.60
2019-02-24T21:24:46.513Z,47.30
2019-02-24T21:28:58.974Z,42.20
2019-02-24T21:33:11.386Z,40.57
2019-02-24T21:37:24.172Z,40.03
2019-02-24T21:41:36.693Z,38.10
2019-02-24T21:45:49.082Z,40.87
2019-02-24T21:50:01.863Z,42.07
2019-02-24T21:54:14.349Z,42.27
2019-02-24T21:58:27.224Z,39.00
2019-02-24T22:02:39.894Z,36.03
2019-02-24T22:06:52.329Z,33.57
2019-02-24T22:11:05.576Z,41.77
2019-02-24T22:15:18.769Z,39.53
2019-02-24T22:19:31.128Z,39.03
2019-02-24T22:23:43.545Z,37.47
2019-02-24T22:27:55.853Z,34.80
2019-02-24T22:32:08.552Z,41.77
2019-02-24T22:36:21.017Z,44.80
2019-02-24T22:40:34.007Z,44.07
2019-02-24T22:44:46.640Z,42.27
2019-02-24T22:48:59.553Z,37.30
2019-02-24T22:53:12.100Z,34.33
2019-02-24T22:57:24.502Z,33.93
2019-02-24T23:01:40.532Z,33.87
2019-02-24T23:05:53.099Z,34.10
2019-02-24T23:10:06.300Z,33.23
2019-02-24T23:14:18.807Z,28.43
2019-02-24T23:18:32.350Z,25.93
2019-02-24T23:22:45.311Z,23.43
2019-02-24T23:26:57.761Z,22.20
2019-02-24T23:31:10.105Z,20.23
2019-02-24T23:35:22.491Z,19.23
2019-02-24T23:39:35.986Z,18.97
2019-02-24T23:43:48.382Z,18.57
2019-02-24T23:48:03.345Z,20.00
2019-02-24T23:52:18.587Z,21.17
2019-02-24T23:56:31.291Z,20.47
